createdAt,value
2023-01-13T00:00:16.710Z,0.77
2023-01-13T00:02:43.999Z,0.90
2023-01-13T00:05:11.649Z,0.90
2023-01-13T00:07:40.514Z,0.70
2023-01-13T00:10:10.283Z,0.77
2023-01-13T00:12:44.539Z,0.60
2023-01-13T00:15:12.026Z,0.70
2023-01-13T00:17:39.385Z,0.70
2023-01-13T00:20:07.377Z,0.75
2023-01-13T00:22:35.868Z,0.88
2023-01-13T00:25:04.698Z,0.60
2023-01-13T00:27:32.181Z,0.77
2023-01-13T00:29:59.522Z,0.80
2023-01-13T00:32:27.134Z,0.77
2023-01-13T00:34:54.370Z,0.70
2023-01-13T00:37:21.618Z,1.15
2023-01-13T00:39:49.266Z,0.60
2023-01-13T00:42:34.872Z,0.50
2023-01-13T00:45:02.430Z,0.80
2023-01-13T00:47:29.760Z,0.90
2023-01-13T00:49:56.883Z,0.93
2023-01-13T00:52:23.974Z,0.68
2023-01-13T00:54:51.188Z,0.70
2023-01-13T00:57:19.099Z,0.80
2023-01-13T00:59:48.058Z,0.88
2023-01-13T01:02:17.356Z,0.70
2023-01-13T01:04:44.603Z,0.70
2023-01-13T01:07:13.017Z,0.70
2023-01-13T01:09:40.262Z,1.48
2023-01-13T01:12:07.439Z,0.90
2023-01-13T01:14:34.708Z,0.93
2023-01-13T01:17:01.922Z,0.70
2023-01-13T01:19:29.059Z,0.82
2023-01-13T01:21:56.254Z,0.77
2023-01-13T01:24:23.460Z,0.88
2023-01-13T01:26:50.604Z,1.02
2023-01-13T01:29:18.270Z,0.70
2023-01-13T01:31:45.518Z,0.82
2023-01-13T01:34:12.678Z,1.02
2023-01-13T01:36:40.238Z,0.70
2023-01-13T01:39:07.476Z,0.80
2023-01-13T01:41:36.641Z,0.80
2023-01-13T01:44:41.411Z,0.60
2023-01-13T01:47:17.530Z,0.57
2023-01-13T01:49:46.397Z,0.68
2023-01-13T01:52:19.605Z,0.77
2023-01-13T01:54:55.885Z,0.90
2023-01-13T01:58:06.110Z,0.70
2023-01-13T02:00:33.638Z,0.90
2023-01-13T02:03:01.625Z,0.80
2023-01-13T02:05:28.792Z,1.13
2023-01-13T02:07:58.038Z,0.80
2023-01-13T02:10:28.230Z,0.80
2023-01-13T02:12:59.831Z,0.80
2023-01-13T02:15:53.176Z,0.65
2023-01-13T02:18:25.971Z,0.70
2023-01-13T02:20:56.145Z,1.00
2023-01-13T02:23:58.395Z,0.82
2023-01-13T02:26:46.547Z,0.70
2023-01-13T02:29:57.070Z,0.60
2023-01-13T02:32:36.154Z,0.82
2023-01-13T02:35:13.718Z,0.55
2023-01-13T02:37:43.779Z,0.70
2023-01-13T02:40:42.204Z,0.73
2023-01-13T02:43:39.694Z,0.70
2023-01-13T02:46:25.601Z,0.77
2023-01-13T02:48:57.107Z,0.90
2023-01-13T02:51:27.536Z,0.80
2023-01-13T02:54:01.061Z,0.70
2023-01-13T02:56:29.619Z,0.82
2023-01-13T02:58:58.988Z,0.80
2023-01-13T03:01:26.425Z,0.73
2023-01-13T03:03:53.642Z,0.80
2023-01-13T03:06:41.641Z,0.90
2023-01-13T03:09:18.625Z,0.85
2023-01-13T03:12:24.236Z,0.75
2023-01-13T03:15:02.013Z,1.08
2023-01-13T03:18:10.495Z,0.60
2023-01-13T03:20:45.241Z,0.70
2023-01-13T03:23:29.722Z,0.88
2023-01-13T03:26:08.719Z,0.75
2023-01-13T03:28:46.324Z,1.00
2023-01-13T03:31:22.872Z,0.70
2023-01-13T03:34:02.298Z,0.88
2023-01-13T03:36:32.669Z,0.73
2023-01-13T03:39:06.659Z,0.63
2023-01-13T03:41:41.781Z,0.52
2023-01-13T03:44:24.537Z,0.60
2023-01-13T03:47:20.883Z,0.88
2023-01-13T03:49:57.139Z,0.77
2023-01-13T03:52:53.583Z,0.70
2023-01-13T03:55:30.513Z,0.80
2023-01-13T03:58:19.647Z,0.80
2023-01-13T04:01:05.943Z,0.70
2023-01-13T04:03:35.905Z,0.68
2023-01-13T04:06:17.641Z,0.70
2023-01-13T04:08:53.543Z,1.05
2023-01-13T04:11:31.877Z,1.00
2023-01-13T04:14:02.381Z,0.70
2023-01-13T04:16:29.754Z,0.70
2023-01-13T04:18:56.748Z,0.77
2023-01-13T04:21:23.768Z,0.70
2023-01-13T04:23:52.058Z,0.60
2023-01-13T04:26:19.925Z,0.68
2023-01-13T04:28:47.041Z,0.70
2023-01-13T04:31:14.148Z,0.82
2023-01-13T04:33:41.451Z,0.57
2023-01-13T04:36:08.699Z,0.60
2023-01-13T04:38:35.789Z,0.80
2023-01-13T04:41:02.970Z,0.90
2023-01-13T04:43:30.059Z,0.80
2023-01-13T04:45:57.022Z,0.60
2023-01-13T04:48:23.983Z,1.40
2023-01-13T04:50:50.992Z,0.68
2023-01-13T04:53:18.076Z,0.65
2023-01-13T04:55:45.132Z,0.60
2023-01-13T04:58:12.044Z,0.60
2023-01-13T05:00:39.146Z,0.90
2023-01-13T05:03:06.572Z,0.90
2023-01-13T05:05:33.462Z,0.68
2023-01-13T05:08:00.780Z,0.65
2023-01-13T05:10:27.971Z,0.70
2023-01-13T05:13:13.934Z,0.88
2023-01-13T05:16:00.522Z,0.70
2023-01-13T05:18:29.875Z,0.60
2023-01-13T05:20:57.537Z,0.55
2023-01-13T05:23:44.802Z,0.60
2023-01-13T05:26:11.890Z,1.00
2023-01-13T05:28:38.965Z,0.75
2023-01-13T05:31:07.002Z,0.60
2023-01-13T05:33:35.726Z,0.63
2023-01-13T05:36:04.036Z,0.52
2023-01-13T05:38:31.142Z,0.90
2023-01-13T05:41:18.404Z,0.63
2023-01-13T05:43:45.511Z,0.75
2023-01-13T05:46:13.069Z,0.80
2023-01-13T05:48:43.921Z,0.77
2023-01-13T05:51:12.533Z,0.60
2023-01-13T05:53:42.907Z,0.70
2023-01-13T05:56:10.454Z,0.70
2023-01-13T05:58:37.711Z,0.65
2023-01-13T06:01:07.538Z,0.50
2023-01-13T06:03:35.237Z,0.82
2023-01-13T06:06:04.308Z,0.60
2023-01-13T06:08:32.361Z,0.70
2023-01-13T06:10:59.510Z,0.80
2023-01-13T06:13:26.919Z,0.50
2023-01-13T06:15:59.276Z,0.70
2023-01-13T06:18:27.256Z,0.55
2023-01-13T06:20:54.278Z,0.55
2023-01-13T06:23:21.337Z,0.60
2023-01-13T06:25:58.942Z,0.80
2023-01-13T06:28:26.137Z,0.70
2023-01-13T06:30:57.886Z,0.80
2023-01-13T06:33:43.760Z,0.65
2023-01-13T06:36:16.466Z,0.68
2023-01-13T06:38:47.836Z,1.00
2023-01-13T06:41:15.525Z,0.82
2023-01-13T06:43:42.724Z,0.93
2023-01-13T06:46:10.963Z,0.80
2023-01-13T06:48:38.089Z,0.70
2023-01-13T06:51:05.523Z,0.70
2023-01-13T06:53:32.660Z,0.50
2023-01-13T06:55:59.618Z,0.70
2023-01-13T06:58:26.588Z,0.60
2023-01-13T07:00:53.829Z,0.70
2023-01-13T07:03:20.956Z,0.70
2023-01-13T07:05:54.450Z,0.80
2023-01-13T07:08:22.773Z,0.70
2023-01-13T07:10:49.865Z,1.05
2023-01-13T07:13:35.581Z,0.80
2023-01-13T07:16:05.368Z,0.70
2023-01-13T07:18:33.484Z,0.80
2023-01-13T07:21:03.255Z,0.90
2023-01-13T07:23:33.007Z,0.73
2023-01-13T07:26:02.067Z,0.63
2023-01-13T07:28:30.648Z,0.90
2023-01-13T07:30:58.600Z,0.85
2023-01-13T07:33:25.920Z,0.60
2023-01-13T07:35:58.032Z,0.98
2023-01-13T07:38:25.848Z,0.80
2023-01-13T07:40:53.414Z,1.02
2023-01-13T07:43:32.657Z,1.00
2023-01-13T07:46:02.496Z,0.65
2023-01-13T07:48:30.387Z,0.70
2023-01-13T07:51:02.398Z,0.90
2023-01-13T07:53:29.509Z,0.50
2023-01-13T07:55:57.912Z,0.70
2023-01-13T07:58:26.324Z,0.60
2023-01-13T08:00:54.098Z,0.63
2023-01-13T08:03:22.116Z,0.80
2023-01-13T08:05:49.281Z,0.60
2023-01-13T08:08:17.059Z,0.60
2023-01-13T08:10:45.185Z,1.00
2023-01-13T08:13:17.599Z,0.90
2023-01-13T08:15:46.268Z,0.93
2023-01-13T08:18:13.589Z,1.00
2023-01-13T08:20:40.911Z,0.60
2023-01-13T08:23:07.965Z,1.15
2023-01-13T08:25:35.466Z,1.90
2023-01-13T08:28:03.017Z,1.20
2023-01-13T08:30:30.675Z,1.08
2023-01-13T08:32:57.655Z,0.90
2023-01-13T08:35:24.722Z,1.00
2023-01-13T08:37:52.110Z,1.40
2023-01-13T08:40:21.027Z,1.48
2023-01-13T08:42:48.785Z,1.65
2023-01-13T08:45:15.999Z,2.00
2023-01-13T08:47:42.891Z,1.45
2023-01-13T08:50:11.498Z,2.20
2023-01-13T08:52:38.601Z,1.40
2023-01-13T08:55:06.235Z,8.50
2023-01-13T08:57:33.342Z,3.50
2023-01-13T09:00:00.447Z,5.05
2023-01-13T09:02:28.368Z,1.00
2023-01-13T09:04:55.623Z,0.68
2023-01-13T09:07:22.706Z,2.13
2023-01-13T09:09:49.716Z,1.38
2023-01-13T09:12:36.438Z,0.90
2023-01-13T09:15:04.554Z,3.00
2023-01-13T09:17:31.497Z,2.60
2023-01-13T09:19:58.453Z,0.88
2023-01-13T09:22:28.105Z,1.45
2023-01-13T09:24:57.020Z,1.10
2023-01-13T09:27:24.322Z,1.20
2023-01-13T09:29:51.216Z,1.00
2023-01-13T09:32:18.204Z,2.63
2023-01-13T09:35:10.988Z,4.20
2023-01-13T09:37:40.265Z,3.30
2023-01-13T09:40:17.064Z,1.10
2023-01-13T09:43:17.221Z,0.73
2023-01-13T09:45:53.359Z,0.98
2023-01-13T09:48:30.293Z,0.73
2023-01-13T09:50:57.256Z,0.98
2023-01-13T09:53:57.500Z,0.82
2023-01-13T09:56:26.107Z,0.73
2023-01-13T09:58:53.115Z,0.80
2023-01-13T10:01:47.350Z,0.63
2023-01-13T10:04:15.571Z,0.80
2023-01-13T10:06:49.941Z,0.75
2023-01-13T10:09:22.995Z,0.73
2023-01-13T10:12:10.733Z,0.70
2023-01-13T10:14:55.317Z,0.88
2023-01-13T10:17:39.463Z,0.80
2023-01-13T10:20:21.254Z,0.70
2023-01-13T10:22:57.266Z,0.75
2023-01-13T10:25:34.811Z,0.80
2023-01-13T10:28:09.772Z,0.55
2023-01-13T10:30:41.062Z,0.63
2023-01-13T10:33:14.700Z,0.70
2023-01-13T10:36:02.072Z,0.90
2023-01-13T10:38:46.610Z,0.68
2023-01-13T10:41:16.552Z,0.70
2023-01-13T10:43:44.532Z,0.52
2023-01-13T10:46:16.541Z,0.88
2023-01-13T10:48:47.460Z,0.60
2023-01-13T10:51:14.434Z,0.50
2023-01-13T10:53:52.043Z,1.65
2023-01-13T10:56:21.177Z,0.47
2023-01-13T10:58:48.328Z,0.60
2023-01-13T11:01:27.245Z,0.68
2023-01-13T11:03:55.352Z,0.50
2023-01-13T11:06:29.289Z,0.57
2023-01-13T11:08:58.645Z,0.70
2023-01-13T11:11:40.208Z,0.75
2023-01-13T11:14:33.241Z,0.47
2023-01-13T11:17:20.946Z,0.50
2023-01-13T11:20:00.164Z,0.70
2023-01-13T11:22:34.105Z,0.60
2023-01-13T11:25:09.466Z,0.52
2023-01-13T11:28:01.054Z,1.95
2023-01-13T11:30:28.028Z,1.48
2023-01-13T11:33:10.114Z,0.77
2023-01-13T11:36:13.721Z,4.47
2023-01-13T11:38:49.759Z,1.30
2023-01-13T11:41:32.609Z,1.27
2023-01-13T11:44:13.995Z,1.38
2023-01-13T11:46:41.643Z,1.20
2023-01-13T11:49:27.154Z,2.03
2023-01-13T11:52:14.052Z,1.38
2023-01-13T11:54:57.704Z,1.70
2023-01-13T11:57:30.439Z,1.08
2023-01-13T12:00:11.895Z,0.60
2023-01-13T12:02:47.857Z,0.43
2023-01-13T12:05:38.073Z,0.98
2023-01-13T12:08:43.231Z,2.60
2023-01-13T12:11:24.870Z,0.80
2023-01-13T12:14:15.766Z,0.73
2023-01-13T12:16:49.146Z,1.00
2023-01-13T12:19:21.622Z,1.05
2023-01-13T12:22:07.027Z,1.60
2023-01-13T12:24:48.143Z,0.80
2023-01-13T12:27:36.284Z,0.90
2023-01-13T12:30:20.923Z,1.05
2023-01-13T12:32:48.887Z,0.70
2023-01-13T12:35:40.150Z,0.90
2023-01-13T12:38:28.403Z,0.65
2023-01-13T12:41:32.693Z,1.13
2023-01-13T12:44:18.219Z,0.90
2023-01-13T12:46:56.719Z,1.20
2023-01-13T12:49:30.239Z,1.00
2023-01-13T12:51:57.177Z,0.90
2023-01-13T12:54:39.465Z,1.50
2023-01-13T12:57:27.284Z,2.75
2023-01-13T13:00:03.347Z,1.88
2023-01-13T13:02:38.706Z,1.90
2023-01-13T13:05:14.665Z,1.40
2023-01-13T13:08:19.655Z,2.35
2023-01-13T13:11:02.140Z,1.80
2023-01-13T13:13:49.554Z,0.70
2023-01-13T13:16:26.050Z,3.40
2023-01-13T13:18:53.766Z,2.70
2023-01-13T13:21:20.763Z,1.00
2023-01-13T13:23:53.629Z,2.35
2023-01-13T13:26:31.098Z,4.93
2023-01-13T13:29:24.323Z,7.05
2023-01-13T13:32:18.430Z,7.70
2023-01-13T13:35:07.412Z,11.13
2023-01-13T13:38:20.422Z,1.77
2023-01-13T13:41:06.551Z,3.45
2023-01-13T13:43:59.182Z,0.77
2023-01-13T13:46:47.946Z,8.95
2023-01-13T13:49:21.165Z,1.30
2023-01-13T13:52:00.288Z,1.17
2023-01-13T13:54:28.071Z,1.50
2023-01-13T13:56:55.216Z,1.45
2023-01-13T13:59:26.199Z,1.23
2023-01-13T14:02:02.011Z,1.27
2023-01-13T14:04:32.869Z,1.98
2023-01-13T14:07:02.598Z,1.23
2023-01-13T14:09:41.537Z,1.33
2023-01-13T14:12:27.727Z,1.15
2023-01-13T14:14:57.663Z,0.85
2023-01-13T14:17:30.335Z,1.17
2023-01-13T14:20:08.495Z,1.85
2023-01-13T14:22:37.277Z,1.45
2023-01-13T14:25:31.221Z,3.58
2023-01-13T14:28:03.833Z,4.30
2023-01-13T14:30:32.177Z,5.80
2023-01-13T14:33:00.265Z,5.25
2023-01-13T14:35:27.194Z,5.40
2023-01-13T14:38:02.125Z,5.22
2023-01-13T14:40:40.539Z,6.40
2023-01-13T14:43:16.804Z,3.70
2023-01-13T14:45:59.184Z,3.75
2023-01-13T14:48:37.814Z,6.88
2023-01-13T14:51:11.120Z,18.48
2023-01-13T14:53:46.318Z,29.55
2023-01-13T14:56:37.258Z,5.32
2023-01-13T14:59:36.447Z,3.70
2023-01-13T15:02:26.363Z,1.35
2023-01-13T15:04:59.476Z,2.20
2023-01-13T15:07:31.557Z,1.30
2023-01-13T15:10:01.357Z,1.00
2023-01-13T15:12:28.327Z,1.17
2023-01-13T15:14:55.515Z,3.00
2023-01-13T15:17:22.556Z,2.17
2023-01-13T15:19:49.555Z,1.63
2023-01-13T15:22:16.558Z,1.55
2023-01-13T15:24:43.492Z,1.65
2023-01-13T15:27:19.951Z,1.88
2023-01-13T15:29:47.123Z,4.10
2023-01-13T15:32:21.818Z,4.40
2023-01-13T15:34:49.170Z,5.53
2023-01-13T15:37:17.322Z,9.32
2023-01-13T15:39:44.536Z,11.98
2023-01-13T15:45:32.952Z,3.97
2023-01-13T15:48:00.443Z,25.70
2023-01-13T15:50:28.229Z,6.43
2023-01-13T15:52:55.184Z,4.25
2023-01-13T15:55:30.249Z,4.35
2023-01-13T15:58:00.172Z,2.90
2023-01-13T16:00:27.740Z,2.63
2023-01-13T16:02:54.796Z,4.63
2023-01-13T16:05:21.812Z,3.10
2023-01-13T16:07:49.081Z,7.18
2023-01-13T16:10:23.487Z,2.15
2023-01-13T16:12:50.637Z,3.72
2023-01-13T16:15:20.039Z,4.07
2023-01-13T16:17:54.898Z,2.53
2023-01-13T16:20:22.904Z,2.40
2023-01-13T16:22:50.016Z,8.20
2023-01-13T16:25:22.702Z,6.70
2023-01-13T16:27:50.727Z,7.95
2023-01-13T16:30:27.346Z,9.40
2023-01-13T16:32:58.403Z,9.80
2023-01-13T16:35:28.823Z,5.45
2023-01-13T16:37:58.611Z,9.45
2023-01-13T16:40:33.568Z,9.10
2023-01-13T16:43:03.411Z,11.52
2023-01-13T16:45:34.245Z,13.82
2023-01-13T16:48:03.134Z,9.80
2023-01-13T16:50:36.975Z,8.00
2023-01-13T16:53:06.535Z,18.42
2023-01-13T16:55:33.368Z,15.30
2023-01-13T16:58:01.506Z,15.98
2023-01-13T17:00:29.691Z,2.47
2023-01-13T17:02:59.086Z,4.35
2023-01-13T17:05:26.087Z,5.13
2023-01-13T17:07:54.729Z,12.02
2023-01-13T17:10:23.994Z,2.08
2023-01-13T17:12:51.162Z,1.67
2023-01-13T17:15:19.700Z,2.03
2023-01-13T17:17:52.080Z,9.90
2023-01-13T17:20:20.455Z,2.03
2023-01-13T17:22:52.130Z,8.90
2023-01-13T17:25:24.834Z,1.48
2023-01-13T17:27:51.747Z,2.40
2023-01-13T17:30:21.752Z,5.70
2023-01-13T17:32:48.746Z,2.10
2023-01-13T17:35:19.688Z,1.05
2023-01-13T17:37:47.186Z,2.70
2023-01-13T17:40:14.236Z,1.30
2023-01-13T17:42:41.187Z,1.33
2023-01-13T17:45:11.469Z,1.67
2023-01-13T17:47:39.066Z,2.00
2023-01-13T17:50:06.529Z,5.50
2023-01-13T17:52:34.265Z,4.90
2023-01-13T17:55:02.415Z,3.83
2023-01-13T17:57:30.182Z,2.00
2023-01-13T17:59:59.742Z,2.08
2023-01-13T18:02:26.985Z,3.00
2023-01-13T18:04:54.061Z,3.42
2023-01-13T18:07:21.407Z,2.22
2023-01-13T18:09:48.331Z,1.85
2023-01-13T18:12:15.298Z,2.10
2023-01-13T18:14:43.689Z,1.90
2023-01-13T18:17:10.826Z,5.50
2023-01-13T18:19:56.767Z,3.15
2023-01-13T18:22:42.057Z,0.88
2023-01-13T18:25:30.834Z,2.00
2023-01-13T18:28:02.984Z,1.30
2023-01-13T18:30:29.773Z,2.03
2023-01-13T18:32:57.306Z,1.58
2023-01-13T18:35:25.244Z,2.20
2023-01-13T18:37:54.694Z,1.20
2023-01-13T18:40:21.697Z,1.70
2023-01-13T18:42:51.910Z,1.75
2023-01-13T18:45:21.753Z,1.60
2023-01-13T18:47:48.913Z,1.55
2023-01-13T18:50:17.450Z,1.35
2023-01-13T18:52:44.802Z,1.50
2023-01-13T18:55:13.050Z,1.40
2023-01-13T18:57:40.663Z,3.58
2023-01-13T19:00:11.079Z,1.30
2023-01-13T19:02:38.716Z,1.50
2023-01-13T19:05:07.171Z,1.23
2023-01-13T19:07:35.799Z,1.00
2023-01-13T19:10:17.329Z,1.48
2023-01-13T19:12:44.726Z,1.38
2023-01-13T19:15:17.472Z,1.23
2023-01-13T19:17:45.290Z,1.33
2023-01-13T19:20:12.750Z,2.67
2023-01-13T19:22:42.283Z,1.48
2023-01-13T19:25:09.824Z,1.25
2023-01-13T19:27:40.151Z,1.80
2023-01-13T19:30:09.586Z,1.42
2023-01-13T19:32:36.939Z,1.67
2023-01-13T19:35:05.327Z,1.65
2023-01-13T19:37:37.273Z,1.65
2023-01-13T19:40:09.559Z,1.15
2023-01-13T19:42:54.980Z,1.55
2023-01-13T19:45:27.996Z,1.13
2023-01-13T19:47:58.248Z,1.00
2023-01-13T19:50:25.661Z,1.10
2023-01-13T19:52:52.894Z,1.30
2023-01-13T19:55:20.981Z,2.72
2023-01-13T19:57:48.006Z,2.00
2023-01-13T20:00:20.682Z,1.42
2023-01-13T20:02:49.783Z,1.50
2023-01-13T20:05:22.557Z,1.77
2023-01-13T20:07:52.156Z,1.75
2023-01-13T20:10:21.702Z,0.88
2023-01-13T20:12:50.164Z,1.90
2023-01-13T20:15:19.390Z,1.80
2023-01-13T20:17:46.709Z,1.30
2023-01-13T20:20:16.151Z,1.77
2023-01-13T20:22:44.298Z,1.60
2023-01-13T20:25:13.408Z,0.95
2023-01-13T20:27:40.372Z,1.63
2023-01-13T20:30:09.768Z,1.95
2023-01-13T20:32:37.336Z,1.30
2023-01-13T20:35:05.205Z,1.38
2023-01-13T20:37:32.027Z,1.00
2023-01-13T20:40:01.839Z,1.15
2023-01-13T20:42:29.363Z,1.55
2023-01-13T20:44:59.170Z,1.48
2023-01-13T20:47:26.944Z,0.90
2023-01-13T20:49:54.063Z,1.38
2023-01-13T20:52:22.064Z,1.52
2023-01-13T20:54:49.091Z,1.17
2023-01-13T20:57:16.080Z,1.02
2023-01-13T20:59:43.097Z,0.98
2023-01-13T21:02:15.670Z,1.50
2023-01-13T21:04:42.801Z,1.15
2023-01-13T21:07:10.543Z,1.30
2023-01-13T21:09:38.465Z,1.45
2023-01-13T21:12:26.265Z,1.08
2023-01-13T21:15:12.053Z,1.58
2023-01-13T21:17:57.290Z,1.08
2023-01-13T21:20:24.516Z,1.90
2023-01-13T21:22:53.127Z,1.65
2023-01-13T21:25:20.338Z,1.33
2023-01-13T21:27:56.959Z,1.15
2023-01-13T21:30:23.949Z,1.50
2023-01-13T21:32:50.985Z,0.88
2023-01-13T21:35:17.854Z,1.23
2023-01-13T21:37:47.203Z,1.98
2023-01-13T21:40:15.150Z,1.30
2023-01-13T21:43:00.912Z,1.30
2023-01-13T21:45:47.145Z,1.10
2023-01-13T21:48:14.545Z,1.33
2023-01-13T21:50:42.376Z,1.40
2023-01-13T21:53:09.713Z,1.20
2023-01-13T21:55:37.693Z,1.40
2023-01-13T21:58:14.361Z,1.40
2023-01-13T22:00:43.495Z,1.55
2023-01-13T22:03:12.634Z,1.27
2023-01-13T22:05:39.909Z,1.30
2023-01-13T22:08:07.512Z,1.52
2023-01-13T22:10:36.161Z,0.93
2023-01-13T22:13:23.880Z,1.10
2023-01-13T22:15:50.757Z,2.03
2023-01-13T22:18:18.576Z,1.40
2023-01-13T22:20:46.243Z,1.15
2023-01-13T22:23:13.742Z,1.70
2023-01-13T22:25:40.620Z,1.88
2023-01-13T22:28:09.402Z,1.15
2023-01-13T22:30:36.567Z,1.50
2023-01-13T22:33:03.709Z,1.88
2023-01-13T22:35:30.624Z,1.42
2023-01-13T22:37:59.654Z,0.95
2023-01-13T22:40:27.612Z,1.30
2023-01-13T22:42:54.493Z,1.08
2023-01-13T22:45:21.716Z,1.52
2023-01-13T22:47:49.989Z,2.97
2023-01-13T22:50:20.824Z,1.85
2023-01-13T22:52:47.796Z,1.60
2023-01-13T22:55:14.746Z,1.80
2023-01-13T22:57:47.696Z,1.33
2023-01-13T23:00:19.317Z,1.20
2023-01-13T23:02:46.629Z,1.63
2023-01-13T23:05:14.161Z,1.70
2023-01-13T23:07:41.393Z,1.10
2023-01-13T23:10:08.939Z,1.02
2023-01-13T23:12:37.431Z,1.05
2023-01-13T23:15:05.493Z,0.90
2023-01-13T23:17:33.961Z,1.20
2023-01-13T23:20:01.671Z,1.38
2023-01-13T23:22:28.469Z,1.15
2023-01-13T23:24:55.441Z,1.25
2023-01-13T23:27:22.239Z,1.48
2023-01-13T23:29:49.553Z,1.75
2023-01-13T23:32:16.721Z,1.50
2023-01-13T23:34:43.494Z,1.33
2023-01-13T23:37:10.422Z,1.80
2023-01-13T23:39:37.347Z,1.45
2023-01-13T23:42:04.316Z,1.80
2023-01-13T23:44:31.394Z,1.52
2023-01-13T23:46:58.327Z,1.50
2023-01-13T23:49:25.255Z,1.30
2023-01-13T23:51:52.647Z,1.75
2023-01-13T23:54:20.189Z,0.75
2023-01-13T23:56:50.345Z,1.45
2023-01-13T23:59:17.231Z,1.33
